Terminal Aerodrome Forecast
Issued by NWS

Home | Current Version | Previous Version | Text Only | Print | Product List | Glossary On
Versions: 1 2 3 4 5 6 7 8 9 10 11 12 13 14 15 16 17 18
000
FTUS41 KBGM 220542
TAFRME
TAF
KRME 220542Z 2206/2306 20004KT P6SM OVC130
     FM221100 VRB03KT P6SM OVC020
      TEMPO 2211/2214 3SM -RA OVC012
     FM221400 31008G16KT P6SM OVC020
     FM222000 30011G19KT P6SM BKN050
     FM230500 30007KT P6SM SCT070=

USA.gov is the U.S. government's official web portal to all federal, state and local government web resources and services.